Latest Weather Observations for Jandakot

IDW60901

Issued at 7:11 am WST Friday 23 February 2024 (issued every 10 minutes, with the page automatically refreshed every 10 minutes)

About weather observations | Map of Perth area stations | Latest observations for Perth area | Other Formats
Station Details ID: 009172 Name: JANDAKOT AERO Lat: -32.10 Lon: 115.88 Height: 30.0 m
Data from the previous 72 hours. | See also: Recent months at Jandakot
Date/Time
WST
Temp
°C
App
Temp
°C
Dew
Point
°C
Rel
Hum
%
Delta-T
°C
Wind Press
QNH
hPa
Press
MSL
hPa
Rain since
9am
mm
Dir  Spd
km/h
Gust
km/h
Spd
kts
Gust
kts
23/07:00am 19.1 14.8 10.9 59 4.5 E 24 32 13 17 1015.2 1015.0 0.0
23/06:30am 18.2 13.1 10.6 61 4.1 E 28 37 15 20 1015.3 1015.1 0.0
23/06:00am 18.0 12.5 10.6 62 4.0 E 30 44 16 24 1015.0 1014.8 0.0
23/05:30am 18.0 11.9 10.4 61 4.1 E 33 43 18 23 1014.7 1014.5 0.0
23/05:00am 18.2 12.1 10.6 61 4.1 E 33 48 18 26 1014.6 1014.4 0.0
23/04:41am 18.4 12.9 10.5 60 4.2 E 30 50 16 27 1014.5 1014.3 0.0
23/04:30am 18.4 14.0 10.5 60 4.2 E 24 37 13 20 1014.6 1014.4 0.0
23/04:00am 18.5 13.7 10.3 59 4.4 E 26 41 14 22 1014.7 1014.5 0.0
23/03:30am 18.8 14.8 10.4 58 4.5 E 22 35 12 19 1014.6 1014.4 0.0
23/03:00am 19.2 14.8 10.5 57 4.7 ESE 24 39 13 21 1014.5 1014.3 0.0
23/02:30am 19.7 14.9 10.4 55 5.0 ESE 26 41 14 22 1014.7 1014.5 0.0
23/02:29am 19.7 14.5 10.4 55 5.0 ESE 28 46 15 25 1014.6 1014.4 0.0
23/02:00am 20.1 15.0 10.5 54 5.2 ESE 28 43 15 23 1014.7 1014.5 0.0
23/01:30am 20.7 15.9 10.2 51 5.7 E 26 39 14 21 1015.2 1015.0 0.0
23/01:05am 21.5 15.4 9.7 47 6.4 ESE 32 50 17 27 1015.0 1014.8 0.0
23/01:00am 21.6 15.2 9.5 46 6.5 ESE 33 50 18 27 1015.0 1014.8 0.0
23/12:55am 21.8 15.6 9.3 45 6.7 ESE 32 50 17 27 1014.9 1014.7 0.0
23/12:30am 22.4 16.4 8.5 41 7.4 ESE 30 39 16 21 1015.2 1015.0 0.0
23/12:00am 23.1 16.5 8.4 39 7.8 ESE 33 44 18 24 1015.1 1014.9 0.0
 
Date/Time
WST
Temp
°C
App
Temp
°C
Dew
Point
°C
Rel
Hum
%
Delta-T
°C
Wind Press
QNH
hPa
Press
MSL
hPa
Rain since
9am
mm
Dir  Spd
km/h
Gust
km/h
Spd
kts
Gust
kts
22/11:30pm 23.8 17.1 7.4 35 8.6 ESE 32 46 17 25 1015.5 1015.4 0.0
22/11:00pm 24.3 18.3 7.0 33 9.0 ESE 28 43 15 23 1015.5 1015.4 0.0
22/10:30pm 25.1 19.9 7.3 32 9.4 ESE 24 35 13 19 1015.5 1015.4 0.0
22/10:00pm 25.2 21.0 5.9 29 9.9 SE 17 22 9 12 1015.8 1015.7 0.0
22/09:30pm 25.2 21.0 5.9 29 9.9 SE 17 20 9 11 1016.0 1015.9 0.0
22/09:00pm 25.9 22.0 5.5 27 10.4 SE 15 20 8 11 1015.9 1015.8 0.0
22/08:30pm 26.4 22.1 5.4 26 10.8 SE 17 26 9 14 1015.7 1015.6 0.0
22/08:00pm 27.2 23.0 5.5 25 11.2 ESE 17 19 9 10 1015.5 1015.4 0.0
22/07:30pm 28.2 23.4 5.7 24 11.7 ESE 20 28 11 15 1015.2 1015.0 0.0
22/07:00pm 29.4 23.1 5.5 22 12.5 SE 28 37 15 20 1014.7 1014.5 0.0
22/06:30pm 30.1 24.1 5.4 21 13.0 ESE 26 35 14 19 1014.5 1014.3 0.0
22/06:00pm 30.9 24.4 4.6 19 13.7 E 28 37 15 20 1014.4 1014.2 0.0
22/05:30pm 31.4 25.0 5.0 19 13.9 E 28 39 15 21 1014.2 1014.0 0.0
22/05:00pm 32.0 26.0 5.5 19 14.1 E 26 37 14 20 1014.1 1013.9 0.0
22/04:30pm 31.6 25.2 5.2 19 13.9 ESE 28 50 15 27 1014.3 1014.1 0.0
22/04:28pm 32.0 25.7 5.5 19 14.1 ESE 28 50 15 27 1014.3 1014.1 0.0
22/04:00pm 32.5 26.8 5.1 18 14.5 ESE 24 35 13 19 1014.3 1014.1 0.0
22/03:30pm 31.7 25.3 5.3 19 14.0 ESE 28 46 15 25 1014.6 1014.4 0.0
22/03:00pm 31.3 26.3 6.4 21 13.4 ESE 22 32 12 17 1014.8 1014.6 0.0
22/02:30pm 30.5 24.7 6.4 22 12.9 ESE 26 43 14 23 1015.1 1014.9 0.0
22/02:00pm 30.3 25.9 7.5 24 12.4 ESE 20 32 11 17 1015.3 1015.1 0.0
22/01:30pm 29.4 24.4 7.9 26 11.7 E 24 35 13 19 1015.5 1015.4 0.0
22/01:00pm 28.8 24.1 7.9 27 11.3 E 22 39 12 21 1015.9 1015.8 0.0
22/12:30pm 27.3 22.7 8.2 30 10.3 ESE 22 35 12 19 1016.4 1016.3 0.0
22/12:00pm 27.8 23.8 9.1 31 10.3 E 20 35 11 19 1016.8 1016.7 0.0
22/11:30am 26.4 21.6 8.8 33 9.6 SE 24 37 13 20 1017.2 1017.1 0.0
22/11:00am 24.6 19.3 8.5 36 8.6 ESE 26 39 14 21 1017.7 1017.6 0.0
22/10:30am 24.7 20.0 9.4 38 8.3 ESE 24 39 13 21 1018.0 1017.9 0.0
22/10:00am 23.4 18.7 9.4 41 7.6 ESE 24 35 13 19 1018.2 1018.1 0.0
22/09:30am 22.7 18.2 10.2 45 6.8 E 24 35 13 19 1018.3 1018.2 0.0
22/09:00am 21.2 15.7 10.4 50 5.9 ESE 30 39 16 21 1018.5 1018.4 0.0
22/08:30am 20.3 15.6 10.7 54 5.2 ESE 26 35 14 19 1018.5 1018.4 0.0
22/08:00am 19.3 13.9 10.8 58 4.6 ESE 30 41 16 22 1018.4 1018.3 0.0
22/07:30am 18.5 13.8 10.6 60 4.3 SE 26 37 14 20 1018.5 1018.4 0.0
22/07:00am 17.9 13.5 10.3 61 4.0 SE 24 39 13 21 1018.3 1018.2 0.0
22/06:30am 17.3 12.8 10.0 62 3.9 SE 24 37 13 20 1018.0 1017.9 0.0
22/06:00am 17.0 13.2 9.9 63 3.7 SE 20 26 11 14 1017.4 1017.3 0.0
22/05:30am 17.1 13.3 9.8 62 3.8 SE 20 30 11 16 1017.2 1017.1 0.0
22/05:00am 17.1 13.4 10.0 63 3.7 SE 20 28 11 15 1016.7 1016.6 0.0
22/04:30am 17.4 13.9 10.1 62 3.9 SE 19 24 10 13 1016.5 1016.4 0.0
22/04:00am 17.6 14.4 10.0 61 4.0 SSE 17 24 9 13 1016.2 1016.1 0.0
22/03:30am 18.1 14.3 9.7 58 4.4 SE 20 26 11 14 1015.8 1015.7 0.0
22/03:00am 18.5 14.6 9.6 56 4.7 SE 20 30 11 16 1015.6 1015.5 0.0
22/02:30am 18.8 14.8 9.0 53 5.1 SSE 20 28 11 15 1015.4 1015.3 0.0
22/02:00am 18.0 14.6 9.1 56 4.6 S 17 24 9 13 1015.0 1014.8 0.0
22/01:30am 18.1 14.8 9.5 57 4.5 S 17 20 9 11 1014.7 1014.5 0.0
22/01:00am 18.6 15.0 9.7 56 4.7 S 19 24 10 13 1014.7 1014.5 0.0
22/12:30am 18.7 15.5 10.0 57 4.6 S 17 24 9 13 1014.5 1014.3 0.0
22/12:00am 19.1 15.9 9.9 55 4.9 S 17 24 9 13 1014.4 1014.2 0.0
 
Date/Time
WST
Temp
°C
App
Temp
°C
Dew
Point
°C
Rel
Hum
%
Delta-T
°C
Wind Press
QNH
hPa
Press
MSL
hPa
Rain since
9am
mm
Dir  Spd
km/h
Gust
km/h
Spd
kts
Gust
kts
21/11:30pm 19.7 16.1 9.9 53 5.2 S 19 24 10 13 1014.4 1014.2 0.0
21/11:00pm 20.2 16.5 10.3 53 5.4 S 20 26 11 14 1014.2 1014.0 0.0
21/10:30pm 20.8 18.1 11.7 56 5.1 S 17 24 9 13 1014.2 1014.0 0.0
21/10:00pm 21.4 19.5 14.1 63 4.2 SSW 17 22 9 12 1014.0 1013.8 0.0
21/09:30pm 21.4 20.6 15.0 67 3.8 SSW 13 17 7 9 1013.9 1013.7 0.0
21/09:00pm 21.3 20.5 15.2 68 3.6 SSW 13 19 7 10 1014.0 1013.8 0.0
21/08:30pm 21.4 20.0 15.5 69 3.5 SSW 17 24 9 13 1013.8 1013.6 0.0
21/08:00pm 21.5 19.7 15.6 69 3.5 SSW 19 32 10 17 1013.6 1013.4 0.0
21/07:30pm 22.0 20.2 15.4 66 3.9 SW 19 26 10 14 1013.1 1012.9 0.0
21/07:00pm 22.4 20.4 15.5 65 4.1 SW 20 28 11 15 1012.6 1012.4 0.0
21/06:30pm 23.1 19.4 15.9 64 4.4 SW 30 37 16 20 1011.9 1011.7 0.0
21/06:00pm 24.1 21.1 15.9 60 5.0 SW 26 35 14 19 1011.7 1011.5 0.0
21/05:30pm 24.9 21.7 16.3 59 5.3 SW 28 37 15 20 1011.2 1011.0 0.0
21/05:00pm 25.3 22.3 16.7 59 5.3 SW 28 35 15 19 1010.8 1010.6 0.0
21/04:30pm 25.8 23.3 17.2 59 5.4 SSW 26 33 14 18 1010.5 1010.3 0.0
21/04:00pm 26.1 23.8 17.5 59 5.4 SW 26 33 14 18 1010.3 1010.1 0.0
21/03:30pm 27.0 25.0 18.3 59 5.5 SSW 26 33 14 18 1010.1 1009.9 0.0
21/03:00pm 27.6 26.6 19.7 62 5.1 SW 24 32 13 17 1010.0 1009.8 0.0
21/02:40pm 26.3 25.7 19.7 67 4.3 SW 22 30 12 16 1010.1 1009.9 0.0
21/02:30pm 26.1 25.8 20.4 71 3.7 SW 22 32 12 17 1010.1 1009.9 0.0
21/02:26pm 26.3 26.4 21.1 73 3.4 SW 22 32 12 17 1010.2 1010.0 0.0
21/02:00pm 24.1 24.4 22.2 89 1.3 SW 24 30 13 16 1010.4 1010.2 0.0
21/01:57pm 24.4 24.6 22.1 87 1.5 SW 24 30 13 16 1010.5 1010.3 0.0
21/01:56pm 24.6 24.3 21.9 85 1.8 WSW 26 30 14 16 1010.5 1010.3 0.0
21/01:30pm 26.1 26.6 21.1 74 3.3 WSW 20 26 11 14 1010.3 1010.1 0.0
21/01:00pm 27.6 27.2 20.9 67 4.4 WSW 24 32 13 17 1010.4 1010.2 0.0
21/12:30pm 27.2 27.3 20.3 66 4.5 W 20 28 11 15 1010.7 1010.5 0.0
21/12:00pm 26.8 26.9 19.9 66 4.5 W 19 26 10 14 1010.6 1010.4 0.0
21/11:30am 27.3 27.2 19.9 64 4.8 WNW 20 28 11 15 1010.6 1010.4 0.0
21/11:00am 26.4 26.2 19.8 67 4.3 W 20 28 11 15 1010.8 1010.6 0.0
21/10:30am 26.9 26.8 20.0 66 4.5 W 20 30 11 16 1010.8 1010.6 0.0
21/10:00am 26.6 26.6 19.7 66 4.5 W 19 30 10 16 1010.8 1010.6 0.0
21/09:30am 26.7 27.1 19.8 66 4.5 W 17 24 9 13 1010.8 1010.6 0.0
21/09:00am 26.1 25.9 19.7 68 4.2 WSW 20 28 11 15 1010.9 1010.7 0.0
21/08:30am 25.7 25.6 19.6 69 3.9 WSW 19 26 10 14 1010.8 1010.6 0.0
21/08:00am 25.7 25.1 19.8 70 3.8 WSW 22 32 12 17 1010.5 1010.3 0.0
21/07:30am 24.9 25.9 20.2 75 3.1 W 15 26 8 14 1010.2 1010.0 0.0
21/07:00am 22.6 23.9 17.1 71 3.4 N 6 9 3 5 1010.1 1009.9 0.0
21/06:30am 20.5 21.8 16.1 76 2.6 NNE 4 6 2 3 1009.7 1009.5 0.0
21/06:00am 19.5 20.4 16.0 80 2.1 NNE 6 11 3 6 1009.0 1008.8 0.0
21/05:30am 19.8 20.0 16.8 83 1.8 N 11 13 6 7 1008.5 1008.3 0.0
21/05:00am 19.1 19.1 15.2 78 2.3 N 9 11 5 6 1008.2 1008.0 0.0
21/04:30am 18.9 18.8 15.0 78 2.3 N 9 11 5 6 1008.1 1007.9 0.0
21/04:00am 18.6 18.1 14.9 79 2.2 NNE 11 13 6 7 1007.8 1007.6 0.0
21/03:30am 19.7 20.5 15.8 78 2.3 N 6 9 3 5 1007.9 1007.7 0.0
21/03:00am 20.2 19.9 14.3 69 3.4 N 9 11 5 6 1007.7 1007.5 0.0
21/02:30am 19.7 19.7 14.1 70 3.2 NNE 7 9 4 5 1007.4 1007.2 0.0
21/02:00am 20.4 21.3 15.0 71 3.2 NE 4 7 2 4 1007.4 1007.2 0.0
21/01:30am 18.7 17.9 12.9 69 3.3 NE 9 11 5 6 1007.4 1007.2 0.0
21/01:00am 20.0 20.9 13.0 64 4.0 CALM 0 0 0 0 1007.5 1007.3 0.0
21/12:30am 21.5 22.0 14.9 66 3.9 WSW 6 11 3 6 1008.0 1007.8 0.0
21/12:00am 23.4 23.8 15.2 60 4.9 W 7 9 4 5 1007.8 1007.6 0.0
 
Date/Time
WST
Temp
°C
App
Temp
°C
Dew
Point
°C
Rel
Hum
%
Delta-T
°C
Wind Press
QNH
hPa
Press
MSL
hPa
Rain since
9am
mm
Dir  Spd
km/h
Gust
km/h
Spd
kts
Gust
kts
20/11:30pm 22.4 22.3 13.2 56 5.3 WNW 6 9 3 5 1008.2 1008.0 0.0
20/11:00pm 23.1 23.5 12.4 51 6.1 WSW 2 7 1 4 1008.4 1008.2 0.0
20/10:30pm 24.4 24.7 11.0 43 7.5 CALM 0 0 0 0 1008.4 1008.2 0.0
20/10:00pm 25.3 25.4 11.5 42 7.8 S 2 11 1 6 1008.5 1008.3 0.0
20/09:30pm 26.3 25.1 11.6 40 8.4 WSW 9 9 5 5 1008.6 1008.4 0.0
20/09:00pm 27.6 28.2 12.0 38 9.0 CALM 0 0 0 0 1008.6 1008.4 0.0
20/08:30pm 28.2 27.3 12.5 37 9.2 WSW 9 11 5 6 1008.7 1008.5 0.0
20/08:00pm 30.0 28.2 12.0 33 10.5 SW 13 17 7 9 1008.5 1008.3 0.0
20/07:30pm 31.0 29.0 11.4 30 11.4 SW 13 19 7 10 1008.4 1008.2 0.0
20/07:00pm 32.6 30.2 10.0 25 13.0 WSW 13 15 7 8 1008.1 1007.9 0.0
20/06:30pm 33.8 31.1 10.4 24 13.6 WSW 15 17 8 9 1007.8 1007.6 0.0
20/06:00pm 35.1 32.2 9.5 21 14.7 WSW 15 20 8 11 1007.7 1007.5 0.0
20/05:30pm 35.7 31.8 9.3 20 15.2 WSW 20 24 11 13 1007.5 1007.3 0.0
20/05:00pm 36.7 33.5 10.1 20 15.6 WSW 17 19 9 10 1007.5 1007.3 0.0
20/04:30pm 36.7 33.6 11.5 22 15.0 WSW 19 28 10 15 1007.5 1007.3 0.0
20/04:00pm 36.2 32.6 10.4 21 15.1 SSW 20 28 11 15 1007.6 1007.4 0.0
20/03:30pm 36.9 33.4 11.0 21 15.3 SSW 20 28 11 15 1007.8 1007.6 0.0
20/03:00pm 37.8 34.9 11.0 20 16.0 SW 17 22 9 12 1007.7 1007.5 0.0
20/02:30pm 37.4 34.8 12.1 22 15.3 SW 17 24 9 13 1007.9 1007.7 0.0
20/02:00pm 36.8 35.4 13.5 24 14.3 SSW 13 19 7 10 1008.3 1008.1 0.0
20/01:30pm 36.1 33.6 13.6 26 13.8 WSW 19 26 10 14 1008.8 1008.6 0.0
20/01:00pm 36.2 34.1 13.6 25 13.9 WSW 17 24 9 13 1009.2 1009.0 0.0
20/12:30pm 35.3 32.8 13.5 27 13.3 W 19 24 10 13 1009.4 1009.2 0.0
20/12:00pm 35.7 32.7 12.0 24 14.2 WSW 19 28 10 15 1009.6 1009.4 0.0
20/11:30am 36.7 33.3 9.3 19 15.8 W 17 26 9 14 1009.6 1009.4 0.0
20/11:00am 37.1 33.0 8.8 18 16.3 NW 20 26 11 14 1009.7 1009.5 0.0
20/10:30am 36.7 33.7 10.8 21 15.3 NW 17 24 9 13 1009.6 1009.4 0.0
20/10:00am 35.2 33.2 11.6 24 14.0 N 13 19 7 10 1009.4 1009.2 0.0
20/09:30am 34.1 31.5 11.9 26 13.2 N 17 20 9 11 1009.3 1009.1 0.0
20/09:00am 32.9 30.5 12.5 29 12.2 N 17 20 9 11 1009.3 1009.1 0.0
20/08:30am 31.8 29.2 12.1 30 11.6 N 17 22 9 12 1009.4 1009.2 0.0
20/08:00am 30.5 28.2 12.9 34 10.5 N 17 20 9 11 1009.4 1009.2 0.0
20/07:30am 28.1 28.5 14.7 44 8.1 NE 6 11 3 6 1009.3 1009.1 0.0

Latest Capital City Observations: Canberra | Sydney | Melbourne | Brisbane | Adelaide | Perth | Hobart | Darwin

Other formats

Comma delimited format used in spreadsheet applications
http://www.bom.gov.au/fwo/IDW60901/IDW60901.94609.axf

JavaScript Object Notation format (JSON) in row-major order
http://www.bom.gov.au/fwo/IDW60901/IDW60901.94609.json

Data quality

Most of these data are generated automatically and are frequently updated. Quality checks on data are not normally performed. It is possible for incorrect values to appear. Refer to information at About Latest Weather Observations and please check the disclaimer before using these data.